createdAt,value
2019-05-12T00:00:18.429Z,71.08
2019-05-12T00:02:47.915Z,71.30
2019-05-12T00:05:13.389Z,71.19
2019-05-12T00:07:40.836Z,71.61
2019-05-12T00:10:08.752Z,72.00
2019-05-12T00:12:37.908Z,72.02
2019-05-12T00:15:03.372Z,72.17
2019-05-12T00:17:30.857Z,71.66
2019-05-12T00:19:58.503Z,71.87
2019-05-12T00:22:25.843Z,71.95
2019-05-12T00:24:53.300Z,72.03
2019-05-12T00:27:20.754Z,72.05
2019-05-12T00:29:48.628Z,72.13
2019-05-12T00:32:17.819Z,71.94
2019-05-12T00:34:43.245Z,71.79
2019-05-12T00:37:10.735Z,71.95
2019-05-12T00:39:38.346Z,72.13
2019-05-12T00:42:07.733Z,72.29
2019-05-12T00:44:33.530Z,71.92
2019-05-12T00:47:00.992Z,71.43
2019-05-12T00:49:29.089Z,70.77
2019-05-12T00:51:55.978Z,69.84
2019-05-12T00:54:23.433Z,68.95
2019-05-12T00:56:50.908Z,68.50
2019-05-12T00:59:19.097Z,68.71
2019-05-12T01:01:48.058Z,69.07
2019-05-12T01:04:13.511Z,69.11
2019-05-12T01:06:40.995Z,69.06
2019-05-12T01:09:08.997Z,68.23
2019-05-12T01:11:37.834Z,68.00
2019-05-12T01:14:03.497Z,68.97
2019-05-12T01:16:31.072Z,69.84
2019-05-12T01:18:58.679Z,70.34
2019-05-12T01:21:26.032Z,70.75
2019-05-12T01:23:59.804Z,70.72
2019-05-12T01:26:20.993Z,71.06
2019-05-12T01:28:48.927Z,71.52
2019-05-12T01:31:18.042Z,72.02
2019-05-12T01:33:43.527Z,72.33
2019-05-12T01:36:11.346Z,72.70
2019-05-12T01:38:38.783Z,72.78
2019-05-12T01:41:08.568Z,72.66
2019-05-12T01:43:33.730Z,72.78
2019-05-12T01:46:01.200Z,73.02
2019-05-12T01:48:28.887Z,73.30
2019-05-12T01:50:57.953Z,73.37
2019-05-12T01:53:23.754Z,73.64
2019-05-12T01:55:51.194Z,73.81
2019-05-12T01:58:19.396Z,73.79
2019-05-12T02:00:48.109Z,73.63
2019-05-12T02:03:13.747Z,73.33
2019-05-12T02:05:41.236Z,72.74
2019-05-12T02:08:09.723Z,72.60
2019-05-12T02:10:38.735Z,72.55
2019-05-12T02:13:04.107Z,72.62
2019-05-12T02:15:31.595Z,72.80
2019-05-12T02:17:59.233Z,72.78
2019-05-12T02:20:28.550Z,72.66
2019-05-12T02:22:54.048Z,72.51
2019-05-12T02:25:21.551Z,72.33
2019-05-12T02:27:48.998Z,72.13
2019-05-12T02:30:19.748Z,72.37
2019-05-12T02:32:49.603Z,72.69
2019-05-12T02:35:11.426Z,72.83
2019-05-12T02:37:38.885Z,72.86
2019-05-12T02:40:07.159Z,72.17
2019-05-12T02:42:35.050Z,71.85
2019-05-12T02:45:05.252Z,71.44
2019-05-12T02:47:29.652Z,71.15
2019-05-12T02:49:57.108Z,70.81
2019-05-12T02:52:25.464Z,70.00
2019-05-12T02:55:00.237Z,69.56
2019-05-12T02:57:20.420Z,69.27
2019-05-12T02:59:47.896Z,69.24
2019-05-12T03:02:15.349Z,69.02
2019-05-12T03:04:44.211Z,68.95
2019-05-12T03:07:10.369Z,69.15
2019-05-12T03:09:37.832Z,69.48
2019-05-12T03:12:06.070Z,69.68
2019-05-12T03:14:39.330Z,69.33
2019-05-12T03:17:00.827Z,69.68
2019-05-12T03:19:28.333Z,70.06
2019-05-12T03:21:55.801Z,70.09
2019-05-12T03:24:24.969Z,70.37
2019-05-12T03:26:50.851Z,70.61
2019-05-12T03:29:18.319Z,70.58
2019-05-12T03:31:48.789Z,70.67
2019-05-12T03:34:19.869Z,70.73
2019-05-12T03:36:43.514Z,70.64
2019-05-12T03:39:09.000Z,70.42
2019-05-12T03:41:36.475Z,70.15
2019-05-12T03:44:05.100Z,69.68
2019-05-12T03:46:35.027Z,68.88
2019-05-12T03:48:59.139Z,68.70
2019-05-12T03:51:26.675Z,68.08
2019-05-12T03:53:55.660Z,68.04
2019-05-12T03:56:21.715Z,68.02
2019-05-12T03:58:49.179Z,67.79
2019-05-12T04:01:17.151Z,68.28
2019-05-12T04:03:45.050Z,68.67
2019-05-12T04:06:11.227Z,69.33
2019-05-12T04:08:38.492Z,69.83
2019-05-12T04:11:05.957Z,69.79
2019-05-12T04:13:34.203Z,69.72
2019-05-12T04:16:00.459Z,69.97
2019-05-12T04:18:27.450Z,70.32
2019-05-12T04:20:54.917Z,70.28
2019-05-12T04:23:24.770Z,69.78
2019-05-12T04:25:54.778Z,69.65
2019-05-12T04:28:17.004Z,69.43
2019-05-12T04:30:44.722Z,68.96
2019-05-12T04:33:15.133Z,68.66
2019-05-12T04:35:39.507Z,68.78
2019-05-12T04:38:06.971Z,69.11
2019-05-12T04:40:35.792Z,69.05
2019-05-12T04:43:05.134Z,69.28
2019-05-12T04:45:29.593Z,69.09
2019-05-12T04:47:57.056Z,68.10
2019-05-12T04:50:25.020Z,67.81
2019-05-12T04:52:54.837Z,67.27
2019-05-12T04:55:20.013Z,66.85
2019-05-12T04:57:47.489Z,66.89
2019-05-12T05:00:16.007Z,67.20
2019-05-12T05:02:45.273Z,66.60
2019-05-12T05:05:10.707Z,66.50
2019-05-12T05:07:38.164Z,66.00
2019-05-12T05:10:06.269Z,65.73
2019-05-12T05:12:34.507Z,65.62
2019-05-12T05:15:01.314Z,66.29
2019-05-12T05:17:28.779Z,66.29
2019-05-12T05:19:56.243Z,66.40
2019-05-12T05:22:24.303Z,66.36
2019-05-12T05:24:53.493Z,66.36
2019-05-12T05:27:18.747Z,66.25
2019-05-12T05:29:46.316Z,66.29
2019-05-12T05:32:14.103Z,66.21
2019-05-12T05:34:46.090Z,66.51
2019-05-12T05:37:08.918Z,66.38
2019-05-12T05:39:47.955Z,66.77
2019-05-12T05:42:04.555Z,66.70
2019-05-12T05:44:34.798Z,66.24
2019-05-12T05:46:58.882Z,65.64
2019-05-12T05:49:26.416Z,64.74
2019-05-12T05:51:56.823Z,64.43
2019-05-12T05:54:24.673Z,63.86
2019-05-12T05:56:58.175Z,63.87
2019-05-12T05:59:21.166Z,63.91
2019-05-12T06:01:47.139Z,64.10
2019-05-12T06:04:14.029Z,64.03
2019-05-12T06:06:42.708Z,63.36
2019-05-12T06:09:07.143Z,63.39
2019-05-12T06:11:34.715Z,62.89
2019-05-12T06:14:11.058Z,62.39
2019-05-12T06:16:29.679Z,62.99
2019-05-12T06:18:57.119Z,62.97
2019-05-12T06:21:29.161Z,62.94
2019-05-12T06:23:54.031Z,62.78
2019-05-12T06:26:21.207Z,62.53
2019-05-12T06:28:47.270Z,62.12
2019-05-12T06:31:18.948Z,61.69
2019-05-12T06:33:44.546Z,61.98
2019-05-12T06:36:19.130Z,61.63
2019-05-12T06:38:40.464Z,61.20
2019-05-12T06:41:05.027Z,61.41
2019-05-12T06:43:35.060Z,61.25
2019-05-12T06:46:00.005Z,60.67
2019-05-12T06:48:30.244Z,60.04
2019-05-12T06:50:54.984Z,60.00
2019-05-12T06:53:26.515Z,60.40
2019-05-12T06:55:50.324Z,60.16
2019-05-12T06:58:26.016Z,59.79
2019-05-12T07:00:45.290Z,59.66
2019-05-12T07:03:14.256Z,59.51
2019-05-12T07:05:42.633Z,59.63
2019-05-12T07:08:07.736Z,58.84
2019-05-12T07:10:42.992Z,59.19
2019-05-12T07:13:05.588Z,58.38
2019-05-12T07:15:35.866Z,57.66
2019-05-12T07:18:10.070Z,57.49
2019-05-12T07:20:39.072Z,57.25
2019-05-12T07:23:04.144Z,56.79
2019-05-12T07:25:35.935Z,56.22
2019-05-12T07:28:01.500Z,56.54
2019-05-12T07:30:26.502Z,56.77
2019-05-12T07:32:59.649Z,55.94
2019-05-12T07:35:21.471Z,55.47
2019-05-12T07:37:48.929Z,55.74
2019-05-12T07:40:18.956Z,55.19
2019-05-12T07:42:43.998Z,55.02
2019-05-12T07:45:20.023Z,54.70
2019-05-12T07:47:38.974Z,54.07
2019-05-12T07:50:09.897Z,53.21
2019-05-12T07:52:35.483Z,52.34
2019-05-12T07:55:04.290Z,52.24
2019-05-12T07:57:30.503Z,52.09
2019-05-12T07:59:57.962Z,52.18
2019-05-12T08:02:31.522Z,52.50
2019-05-12T08:04:54.186Z,52.12
2019-05-12T08:07:28.260Z,52.40
2019-05-12T08:09:50.564Z,52.00
2019-05-12T08:12:20.964Z,51.68
2019-05-12T08:14:45.547Z,50.83
2019-05-12T08:17:18.625Z,50.35
2019-05-12T08:19:40.465Z,50.22
2019-05-12T08:22:07.917Z,49.42
2019-05-12T08:24:42.825Z,49.54
2019-05-12T08:27:06.294Z,49.13
2019-05-12T08:29:30.531Z,49.00
2019-05-12T08:31:57.987Z,48.15
2019-05-12T08:34:25.633Z,47.47
2019-05-12T08:36:56.776Z,47.79
2019-05-12T08:39:23.033Z,47.27
2019-05-12T08:41:48.416Z,46.91
2019-05-12T08:44:17.613Z,46.15
2019-05-12T08:46:52.411Z,44.29
2019-05-12T08:49:10.954Z,43.93
2019-05-12T08:51:38.441Z,43.67
2019-05-12T08:54:08.178Z,42.87
2019-05-12T08:56:33.429Z,42.79
2019-05-12T08:59:01.027Z,42.18
2019-05-12T09:01:30.801Z,41.37
2019-05-12T09:04:00.220Z,41.48
2019-05-12T09:06:23.843Z,41.00
2019-05-12T09:08:51.040Z,40.02
2019-05-12T09:11:18.608Z,39.57
2019-05-12T09:13:46.121Z,39.05
2019-05-12T09:16:13.988Z,38.21
2019-05-12T09:18:43.302Z,37.49
2019-05-12T09:21:08.617Z,37.25
2019-05-12T09:23:41.045Z,37.32
2019-05-12T09:26:04.113Z,37.33
2019-05-12T09:28:44.351Z,37.69
2019-05-12T09:30:59.037Z,37.87
2019-05-12T09:33:31.551Z,37.73
2019-05-12T09:35:54.184Z,36.69
2019-05-12T09:38:24.116Z,36.67
2019-05-12T09:40:52.840Z,37.47
2019-05-12T09:43:17.456Z,36.89
2019-05-12T09:45:52.167Z,35.81
2019-05-12T09:48:14.076Z,36.33
2019-05-12T09:50:43.461Z,36.30
2019-05-12T09:53:11.429Z,36.86
2019-05-12T09:55:36.616Z,37.92
2019-05-12T09:58:04.257Z,37.38
2019-05-12T10:00:35.779Z,37.61
2019-05-12T10:03:00.742Z,37.52
2019-05-12T10:05:30.547Z,38.24
2019-05-12T10:07:54.469Z,39.09
2019-05-12T10:10:24.275Z,40.41
2019-05-12T10:12:50.738Z,41.01
2019-05-12T10:15:24.783Z,42.62
2019-05-12T10:17:45.804Z,43.79
2019-05-12T10:20:13.784Z,44.24
2019-05-12T10:22:43.531Z,43.66
2019-05-12T10:25:08.891Z,43.92
2019-05-12T10:27:36.505Z,44.08
2019-05-12T10:30:12.250Z,43.17
2019-05-12T10:32:34.316Z,42.73
2019-05-12T10:35:01.742Z,42.34
2019-05-12T10:37:29.516Z,41.80
2019-05-12T10:39:56.830Z,40.81
2019-05-12T10:42:24.462Z,40.40
2019-05-12T10:44:54.461Z,40.37
2019-05-12T10:47:20.122Z,40.49
2019-05-12T10:49:47.695Z,40.60
2019-05-12T10:52:16.377Z,40.87
2019-05-12T10:54:43.872Z,40.74
2019-05-12T10:57:13.970Z,40.68
2019-05-12T10:59:46.159Z,40.58
2019-05-12T11:02:07.393Z,39.75
2019-05-12T11:04:39.008Z,39.24
2019-05-12T11:07:04.596Z,38.68
2019-05-12T11:09:32.302Z,38.34
2019-05-12T11:11:58.556Z,37.71
2019-05-12T11:14:30.294Z,37.68
2019-05-12T11:16:54.276Z,37.09
2019-05-12T11:19:21.502Z,35.46
2019-05-12T11:21:49.149Z,34.21
2019-05-12T11:24:16.612Z,34.02
2019-05-12T11:26:45.189Z,34.45
2019-05-12T11:29:14.170Z,33.92
2019-05-12T11:31:40.497Z,33.19
2019-05-12T11:34:07.934Z,32.86
2019-05-12T11:36:35.518Z,32.32
2019-05-12T11:39:03.668Z,32.93
2019-05-12T11:41:30.506Z,33.27
2019-05-12T11:43:57.990Z,33.38
2019-05-12T11:46:25.457Z,33.02
2019-05-12T11:48:53.845Z,32.43
2019-05-12T11:51:20.696Z,32.06
2019-05-12T11:53:48.866Z,31.98
2019-05-12T11:56:16.348Z,32.27
2019-05-12T11:58:47.407Z,33.99
2019-05-12T12:01:13.335Z,34.87
2019-05-12T12:03:38.899Z,35.00
2019-05-12T12:06:06.410Z,34.98
2019-05-12T12:08:37.077Z,35.19
2019-05-12T12:11:03.828Z,34.73
2019-05-12T12:13:30.124Z,34.91
2019-05-12T12:16:00.402Z,34.77
2019-05-12T12:18:24.177Z,35.26
2019-05-12T12:20:55.070Z,34.19
2019-05-12T12:23:19.229Z,32.70
2019-05-12T12:25:48.699Z,31.87
2019-05-12T12:28:14.199Z,32.37
2019-05-12T12:30:41.663Z,32.49
2019-05-12T12:33:09.127Z,31.67
2019-05-12T12:35:36.668Z,31.76
2019-05-12T12:38:04.399Z,31.66
2019-05-12T12:40:31.936Z,32.65
2019-05-12T12:42:59.452Z,34.36
2019-05-12T12:45:40.574Z,34.52
2019-05-12T12:48:07.557Z,34.80
2019-05-12T12:50:35.086Z,34.59
2019-05-12T12:53:02.557Z,34.34
2019-05-12T12:55:30.035Z,33.38
2019-05-12T12:57:57.479Z,33.30
2019-05-12T13:00:32.212Z,32.51
2019-05-12T13:02:52.941Z,31.05
2019-05-12T13:05:20.455Z,31.52
2019-05-12T13:07:48.117Z,31.65
2019-05-12T13:10:15.577Z,31.50
2019-05-12T13:12:43.771Z,30.73
2019-05-12T13:15:10.555Z,31.08
2019-05-12T13:17:41.789Z,30.74
2019-05-12T13:20:05.814Z,31.07
2019-05-12T13:22:33.770Z,30.67
2019-05-12T13:25:04.470Z,31.16
2019-05-12T13:27:29.264Z,31.12
2019-05-12T13:29:55.794Z,30.49
2019-05-12T13:32:31.831Z,30.50
2019-05-12T13:34:52.035Z,31.14
2019-05-12T13:37:19.552Z,31.28
2019-05-12T13:39:55.477Z,31.66
2019-05-12T13:42:13.674Z,31.67
2019-05-12T13:44:40.963Z,31.10
2019-05-12T13:47:08.331Z,30.69
2019-05-12T13:49:40.586Z,30.33
2019-05-12T13:52:04.201Z,30.07
2019-05-12T13:54:31.132Z,29.96
2019-05-12T13:57:03.712Z,30.03
2019-05-12T13:59:26.438Z,29.24
2019-05-12T14:01:58.531Z,28.65
2019-05-12T14:04:27.865Z,29.05
2019-05-12T14:06:53.609Z,28.93
2019-05-12T14:09:21.235Z,28.96
2019-05-12T14:11:48.705Z,29.00
2019-05-12T14:14:16.171Z,29.46
2019-05-12T14:16:52.518Z,30.07
2019-05-12T14:19:11.300Z,29.26
2019-05-12T14:21:41.090Z,28.79
2019-05-12T14:24:06.456Z,28.67
2019-05-12T14:26:33.924Z,28.26
2019-05-12T14:29:03.792Z,28.71
2019-05-12T14:31:35.087Z,29.15
2019-05-12T14:33:56.784Z,29.31
2019-05-12T14:36:26.546Z,28.90
2019-05-12T14:38:54.685Z,29.15
2019-05-12T14:41:24.841Z,29.68
2019-05-12T14:43:53.564Z,30.02
2019-05-12T14:46:18.150Z,30.56
2019-05-12T14:48:50.175Z,30.92
2019-05-12T14:51:14.119Z,30.98
2019-05-12T14:53:41.128Z,31.28
2019-05-12T14:56:08.788Z,30.61
2019-05-12T14:58:36.981Z,29.85
2019-05-12T15:01:04.461Z,29.63
2019-05-12T15:03:34.059Z,29.60
2019-05-12T15:05:59.479Z,29.49
2019-05-12T15:08:36.280Z,29.68
2019-05-12T15:10:54.584Z,29.42
2019-05-12T15:13:24.022Z,29.63
2019-05-12T15:15:50.134Z,29.56
2019-05-12T15:18:17.698Z,29.54
2019-05-12T15:20:49.749Z,29.60
2019-05-12T15:23:14.327Z,29.21
2019-05-12T15:25:40.435Z,29.55
2019-05-12T15:28:07.921Z,29.81
2019-05-12T15:30:35.383Z,29.70
2019-05-12T15:33:04.547Z,29.84
2019-05-12T15:35:30.678Z,29.85
2019-05-12T15:37:58.188Z,29.23
2019-05-12T15:40:25.966Z,26.00
2019-05-12T15:42:55.026Z,25.23
2019-05-12T15:45:20.917Z,26.11
2019-05-12T15:47:49.978Z,27.54
2019-05-12T15:50:17.223Z,28.07
2019-05-12T15:52:45.530Z,28.09
2019-05-12T15:55:13.478Z,28.37
2019-05-12T15:57:38.534Z,28.08
2019-05-12T16:00:05.665Z,28.44
2019-05-12T16:02:34.022Z,29.17
2019-05-12T16:05:00.233Z,29.28
2019-05-12T16:07:29.725Z,30.10
2019-05-12T16:09:55.314Z,30.77
2019-05-12T16:12:24.358Z,31.14
2019-05-12T16:14:53.847Z,31.50
2019-05-12T16:17:24.741Z,31.62
2019-05-12T16:19:46.244Z,32.36
2019-05-12T16:22:14.032Z,32.39
2019-05-12T16:24:43.512Z,32.39
2019-05-12T16:27:08.931Z,33.12
2019-05-12T16:29:38.930Z,33.15
2019-05-12T16:32:04.667Z,33.38
2019-05-12T16:34:36.192Z,33.48
2019-05-12T16:37:00.078Z,34.49
2019-05-12T16:39:30.308Z,35.32
2019-05-12T16:42:00.023Z,35.87
2019-05-12T16:44:26.063Z,35.99
2019-05-12T16:46:53.028Z,35.79
2019-05-12T16:49:18.855Z,36.28
2019-05-12T16:51:46.550Z,37.48
2019-05-12T16:54:14.079Z,38.54
2019-05-12T16:56:43.346Z,39.46
2019-05-12T16:59:16.803Z,40.40
2019-05-12T17:01:37.033Z,40.18
2019-05-12T17:04:04.840Z,40.29
2019-05-12T17:06:36.777Z,40.48
2019-05-12T17:09:03.355Z,40.54
2019-05-12T17:11:30.883Z,40.54
2019-05-12T17:14:02.186Z,40.84
2019-05-12T17:16:25.131Z,41.90
2019-05-12T17:18:53.335Z,43.04
2019-05-12T17:23:54.208Z,45.05
2019-05-12T17:26:24.248Z,45.17
2019-05-12T17:28:50.271Z,45.63
2019-05-12T17:31:17.743Z,45.84
2019-05-12T17:33:45.212Z,44.73
2019-05-12T17:36:17.693Z,43.56
2019-05-12T17:38:40.494Z,43.50
2019-05-12T17:41:07.955Z,43.45
2019-05-12T17:43:35.495Z,43.74
2019-05-12T17:46:04.470Z,43.40
2019-05-12T17:48:30.498Z,43.84
2019-05-12T17:50:58.010Z,44.47
2019-05-12T17:53:30.346Z,44.71
2019-05-12T17:55:53.982Z,45.29
2019-05-12T17:58:20.683Z,45.22
2019-05-12T18:00:51.851Z,45.01
2019-05-12T18:03:21.891Z,44.27
2019-05-12T18:05:48.095Z,43.60
2019-05-12T18:08:10.903Z,43.66
2019-05-12T18:10:39.602Z,43.75
2019-05-12T18:13:06.023Z,43.02
2019-05-12T18:15:37.821Z,43.04
2019-05-12T18:18:01.166Z,43.50
2019-05-12T18:20:31.131Z,43.83
2019-05-12T18:22:56.607Z,44.82
2019-05-12T18:25:30.459Z,45.85
2019-05-12T18:27:54.021Z,46.45
2019-05-12T18:30:19.394Z,47.12
2019-05-12T18:32:46.743Z,47.38
2019-05-12T18:35:14.252Z,47.87
2019-05-12T18:37:41.720Z,48.21
2019-05-12T18:40:09.179Z,47.88
2019-05-12T18:42:36.658Z,47.26
2019-05-12T18:45:11.951Z,46.79
2019-05-12T18:47:35.738Z,46.35
2019-05-12T18:49:59.247Z,46.00
2019-05-12T18:52:29.306Z,46.24
2019-05-12T18:54:57.112Z,46.32
2019-05-12T18:57:23.805Z,46.59
2019-05-12T18:59:57.666Z,46.08
2019-05-12T19:02:23.391Z,45.67
2019-05-12T19:04:44.384Z,45.74
2019-05-12T19:07:11.722Z,45.88
2019-05-12T19:09:39.212Z,45.65
2019-05-12T19:12:15.798Z,46.02
2019-05-12T19:14:36.889Z,45.94
2019-05-12T19:17:03.580Z,45.78
2019-05-12T19:19:29.164Z,46.44
2019-05-12T19:22:04.800Z,46.13
2019-05-12T19:24:24.391Z,46.28
2019-05-12T19:26:54.156Z,46.69
2019-05-12T19:29:19.436Z,46.93
2019-05-12T19:31:52.394Z,47.24
2019-05-12T19:34:22.008Z,47.79
2019-05-12T19:36:47.489Z,48.16
2019-05-12T19:39:09.434Z,48.86
2019-05-12T19:41:38.105Z,49.12
2019-05-12T19:44:04.403Z,52.76
2019-05-12T19:46:34.035Z,51.68
2019-05-12T19:48:59.616Z,51.25
2019-05-12T19:51:28.303Z,50.47
2019-05-12T19:53:54.609Z,50.11
2019-05-12T19:56:23.889Z,50.44
2019-05-12T19:58:49.739Z,50.64
2019-05-12T20:01:17.304Z,50.76
2019-05-12T20:03:44.754Z,51.26
2019-05-12T20:06:13.572Z,51.53
2019-05-12T20:08:39.856Z,51.41
2019-05-12T20:11:07.315Z,51.62
2019-05-12T20:13:35.939Z,51.58
2019-05-12T20:16:01.684Z,51.87
2019-05-12T20:18:28.867Z,51.94
2019-05-12T20:20:56.324Z,51.88
2019-05-12T20:23:24.510Z,51.84
2019-05-12T20:25:53.487Z,52.23
2019-05-12T20:28:20.269Z,52.01
2019-05-12T20:30:52.298Z,52.21
2019-05-12T20:33:16.685Z,52.17
2019-05-12T20:35:49.075Z,52.37
2019-05-12T20:38:14.843Z,52.54
2019-05-12T20:40:43.308Z,51.95
2019-05-12T20:43:12.120Z,51.49
2019-05-12T20:45:40.894Z,51.01
2019-05-12T20:48:05.240Z,50.64
2019-05-12T20:50:38.736Z,50.42
2019-05-12T20:53:01.155Z,50.69
2019-05-12T20:55:30.137Z,50.66
2019-05-12T20:57:56.888Z,50.65
2019-05-12T21:00:24.431Z,50.44
2019-05-12T21:02:51.173Z,50.30
2019-05-12T21:05:20.123Z,50.45
2019-05-12T21:07:46.188Z,50.76
2019-05-12T21:10:14.645Z,50.85
2019-05-12T21:12:46.518Z,50.83
2019-05-12T21:15:16.461Z,51.04
2019-05-12T21:17:43.113Z,51.17
2019-05-12T21:20:04.571Z,51.26
2019-05-12T21:22:33.975Z,51.27
2019-05-12T21:24:59.163Z,50.83
2019-05-12T21:27:26.631Z,50.78
2019-05-12T21:29:54.338Z,50.76
2019-05-12T21:32:24.065Z,50.71
2019-05-12T21:34:52.302Z,50.33
2019-05-12T21:37:16.817Z,50.37
2019-05-12T21:39:49.178Z,50.41
2019-05-12T21:42:11.846Z,50.63
2019-05-12T21:44:41.239Z,51.08
2019-05-12T21:47:10.376Z,51.37
2019-05-12T21:49:34.436Z,51.05
2019-05-12T21:52:05.940Z,51.55
2019-05-12T21:54:36.166Z,51.66
2019-05-12T21:56:58.678Z,51.99
2019-05-12T21:59:29.003Z,52.13
2019-05-12T22:01:54.526Z,52.36
2019-05-12T22:04:23.548Z,52.34
2019-05-12T22:06:51.361Z,52.34
2019-05-12T22:09:17.515Z,52.61
2019-05-12T22:11:51.464Z,52.88
2019-05-12T22:14:13.662Z,53.25
2019-05-12T22:16:44.283Z,53.38
2019-05-12T22:19:07.436Z,53.29
2019-05-12T22:21:37.077Z,53.33
2019-05-12T22:24:04.003Z,53.52
2019-05-12T22:26:30.776Z,53.81
2019-05-12T22:28:57.735Z,53.84
2019-05-12T22:31:25.263Z,53.85
2019-05-12T22:33:56.250Z,53.61
2019-05-12T22:36:26.771Z,53.53
2019-05-12T22:38:51.992Z,53.72
2019-05-12T22:41:16.762Z,54.22
2019-05-12T22:43:45.922Z,54.78
2019-05-12T22:46:16.172Z,55.23
2019-05-12T22:48:40.680Z,55.43
2019-05-12T22:51:15.230Z,55.51
2019-05-12T22:53:34.389Z,55.45
2019-05-12T22:56:05.118Z,55.30
2019-05-12T22:58:29.464Z,55.42
2019-05-12T23:01:00.734Z,55.83
2019-05-12T23:03:24.541Z,55.93
2019-05-12T23:06:00.287Z,55.88
2019-05-12T23:08:19.657Z,55.79
2019-05-12T23:10:51.556Z,56.01
2019-05-12T23:13:14.706Z,55.89
2019-05-12T23:15:45.170Z,55.96
2019-05-12T23:18:09.739Z,55.93
2019-05-12T23:20:37.213Z,55.65
2019-05-12T23:23:08.914Z,55.94
2019-05-12T23:25:33.631Z,56.08
2019-05-12T23:28:00.299Z,56.20
2019-05-12T23:30:27.319Z,55.92
2019-05-12T23:32:54.818Z,56.19
2019-05-12T23:35:22.279Z,56.13
2019-05-12T23:37:49.730Z,56.48
2019-05-12T23:40:17.205Z,56.84
2019-05-12T23:42:44.735Z,56.75
2019-05-12T23:45:13.959Z,56.96
2019-05-12T23:47:40.040Z,57.31
2019-05-12T23:50:07.575Z,57.64
2019-05-12T23:52:35.092Z,57.32
2019-05-12T23:55:02.619Z,57.30
2019-05-12T23:57:30.240Z,57.61
2019-05-12T23:59:57.829Z,57.38
